createdAt,value
2018-10-17T00:00:23.962Z,97.90
2018-10-17T00:01:28.547Z,97.90
2018-10-17T00:02:47.583Z,97.90
2018-10-17T00:03:53.205Z,97.90
2018-10-17T00:04:57.820Z,97.90
2018-10-17T00:06:02.194Z,97.90
2018-10-17T00:07:06.652Z,97.70
2018-10-17T00:08:11.564Z,97.80
2018-10-17T00:09:16.047Z,97.80
2018-10-17T00:10:20.682Z,97.80
2018-10-17T00:11:25.058Z,97.80
2018-10-17T00:12:29.515Z,98.00
2018-10-17T00:13:34.247Z,98.00
2018-10-17T00:14:38.671Z,98.00
2018-10-17T00:15:43.692Z,98.00
2018-10-17T00:16:48.509Z,98.00
2018-10-17T00:17:52.853Z,98.10
2018-10-17T00:18:57.307Z,98.00
2018-10-17T00:20:01.815Z,98.10
2018-10-17T00:21:06.923Z,98.00
2018-10-17T00:22:11.416Z,98.00
2018-10-17T00:23:16.093Z,98.00
2018-10-17T00:24:21.149Z,98.00
2018-10-17T00:25:26.290Z,97.90
2018-10-17T00:26:31.087Z,98.00
2018-10-17T00:27:35.797Z,97.90
2018-10-17T00:28:40.298Z,97.80
2018-10-17T00:29:44.677Z,97.80
2018-10-17T00:30:49.019Z,97.80
2018-10-17T00:31:54.214Z,97.80
2018-10-17T00:32:58.624Z,98.00
2018-10-17T00:34:03.239Z,98.00
2018-10-17T00:35:08.828Z,98.10
2018-10-17T00:36:13.235Z,98.10
2018-10-17T00:37:17.663Z,98.10
2018-10-17T00:38:22.122Z,98.10
2018-10-17T00:39:26.488Z,98.10
2018-10-17T00:40:30.989Z,98.20
2018-10-17T00:41:35.494Z,98.10
2018-10-17T00:42:39.922Z,98.10
2018-10-17T00:43:44.811Z,98.10
2018-10-17T00:44:49.188Z,98.10
2018-10-17T00:45:53.537Z,98.10
2018-10-17T00:46:57.970Z,98.20
2018-10-17T00:48:02.333Z,98.20
2018-10-17T00:49:06.756Z,98.30
2018-10-17T00:50:11.180Z,98.40
2018-10-17T00:51:15.492Z,98.50
2018-10-17T00:52:19.855Z,98.50
2018-10-17T00:53:24.170Z,98.50
2018-10-17T00:54:28.785Z,98.50
2018-10-17T00:55:33.116Z,98.60
2018-10-17T00:56:37.473Z,98.60
2018-10-17T00:57:42.475Z,98.70
2018-10-17T00:58:57.585Z,98.70
2018-10-17T01:00:02.742Z,98.70
2018-10-17T01:01:07.183Z,98.80
2018-10-17T01:02:11.775Z,98.80
2018-10-17T01:03:16.274Z,98.80
2018-10-17T01:04:20.623Z,98.80
2018-10-17T01:05:25.074Z,98.90
2018-10-17T01:06:30.407Z,98.90
2018-10-17T01:07:34.883Z,98.80
2018-10-17T01:08:39.389Z,98.70
2018-10-17T01:09:44.173Z,98.70
2018-10-17T01:10:48.953Z,98.70
2018-10-17T01:11:53.750Z,98.70
2018-10-17T01:12:58.401Z,98.80
2018-10-17T01:14:04.197Z,98.80
2018-10-17T01:15:08.746Z,98.70
2018-10-17T01:16:13.392Z,98.70
2018-10-17T01:17:18.264Z,98.70
2018-10-17T01:18:22.618Z,98.70
2018-10-17T01:19:27.175Z,98.70
2018-10-17T01:20:31.459Z,98.70
2018-10-17T01:21:36.391Z,98.60
2018-10-17T01:22:40.718Z,98.50
2018-10-17T01:23:45.372Z,98.40
2018-10-17T01:24:49.989Z,98.40
2018-10-17T01:25:54.345Z,98.40
2018-10-17T01:26:59.097Z,98.40
2018-10-17T01:28:03.799Z,98.40
2018-10-17T01:29:08.755Z,98.40
2018-10-17T01:30:13.328Z,98.40
2018-10-17T01:31:17.694Z,98.40
2018-10-17T01:32:23.138Z,98.60
2018-10-17T01:33:27.496Z,98.50
2018-10-17T01:34:32.167Z,98.50
2018-10-17T01:35:36.569Z,98.50
2018-10-17T01:36:40.911Z,98.60
2018-10-17T01:37:45.264Z,98.70
2018-10-17T01:38:49.749Z,98.70
2018-10-17T01:39:54.218Z,98.70
2018-10-17T01:40:58.596Z,98.80
2018-10-17T01:42:02.963Z,98.90
2018-10-17T01:43:08.868Z,98.90
2018-10-17T01:44:13.234Z,99.00
2018-10-17T01:45:18.367Z,98.90
2018-10-17T01:46:23.041Z,98.90
2018-10-17T01:47:27.390Z,98.90
2018-10-17T01:48:32.201Z,98.80
2018-10-17T01:49:36.539Z,98.80
2018-10-17T01:50:40.890Z,98.80
2018-10-17T01:51:45.277Z,98.80
2018-10-17T01:52:49.618Z,98.80
2018-10-17T01:53:54.498Z,98.80
2018-10-17T01:54:59.005Z,99.00
2018-10-17T01:56:03.427Z,98.80
2018-10-17T01:57:08.138Z,98.80
2018-10-17T01:58:12.641Z,98.80
2018-10-17T01:59:17.061Z,98.80
2018-10-17T02:00:21.430Z,98.80
2018-10-17T02:01:26.400Z,98.80
2018-10-17T02:02:30.723Z,99.00
2018-10-17T02:03:35.127Z,99.00
2018-10-17T02:04:39.570Z,99.00
2018-10-17T02:05:43.928Z,99.00
2018-10-17T02:06:48.690Z,99.00
2018-10-17T02:07:53.116Z,99.00
2018-10-17T02:08:57.515Z,99.00
2018-10-17T02:10:01.884Z,99.00
2018-10-17T02:11:06.325Z,98.90
2018-10-17T02:12:11.007Z,98.90
2018-10-17T02:13:15.360Z,98.90
2018-10-17T02:14:19.739Z,99.00
2018-10-17T02:15:24.118Z,99.00
2018-10-17T02:16:28.439Z,99.00
2018-10-17T02:17:32.754Z,99.10
2018-10-17T02:18:37.099Z,99.20
2018-10-17T02:19:41.920Z,99.20
2018-10-17T02:20:46.297Z,99.20
2018-10-17T02:21:50.638Z,99.20
2018-10-17T02:22:55.051Z,99.20
2018-10-17T02:23:59.545Z,99.20
2018-10-17T02:25:04.126Z,99.20
2018-10-17T02:26:08.492Z,99.20
2018-10-17T02:27:12.833Z,99.30
2018-10-17T02:28:19.055Z,99.30
2018-10-17T02:29:23.989Z,99.20
2018-10-17T02:30:28.453Z,99.20
2018-10-17T02:31:33.479Z,99.10
2018-10-17T02:32:37.974Z,99.20
2018-10-17T02:33:42.335Z,99.20
2018-10-17T02:34:51.633Z,99.20
2018-10-17T02:35:56.036Z,99.20
2018-10-17T02:37:00.407Z,99.10
2018-10-17T02:38:04.938Z,99.20
2018-10-17T02:39:10.516Z,99.10
2018-10-17T02:40:15.070Z,99.10
2018-10-17T02:41:19.722Z,99.20
2018-10-17T02:42:24.104Z,99.20
2018-10-17T02:43:28.848Z,99.20
2018-10-17T02:44:33.172Z,99.20
2018-10-17T02:45:37.517Z,99.20
2018-10-17T02:46:42.124Z,99.20
2018-10-17T02:47:46.385Z,99.20
2018-10-17T02:48:50.727Z,99.20
2018-10-17T02:49:55.147Z,99.10
2018-10-17T02:50:59.569Z,99.10
2018-10-17T02:52:06.874Z,99.30
2018-10-17T02:53:11.717Z,99.30
2018-10-17T02:54:16.185Z,99.30
2018-10-17T02:55:20.521Z,99.20
2018-10-17T02:56:24.863Z,99.20
2018-10-17T02:57:29.235Z,99.30
2018-10-17T02:58:33.693Z,99.40
2018-10-17T02:59:38.086Z,99.40
2018-10-17T03:00:44.163Z,99.50
2018-10-17T03:01:48.886Z,99.60
2018-10-17T03:02:53.257Z,99.60
2018-10-17T03:03:57.648Z,99.60
2018-10-17T03:05:02.084Z,99.70
2018-10-17T03:06:06.576Z,99.70
2018-10-17T03:07:11.091Z,99.80
2018-10-17T03:08:15.518Z,99.90
2018-10-17T03:09:19.947Z,99.90
2018-10-17T03:10:24.406Z,99.80
2018-10-17T03:11:28.774Z,99.80
2018-10-17T03:12:33.173Z,99.90
2018-10-17T03:13:37.633Z,99.90
2018-10-17T03:14:42.023Z,99.90
2018-10-17T03:15:46.355Z,99.90
2018-10-17T03:16:51.385Z,99.90
2018-10-17T03:17:56.248Z,99.90
2018-10-17T03:19:00.857Z,99.90
2018-10-17T03:20:07.866Z,99.90
2018-10-17T03:21:12.195Z,99.90
2018-10-17T03:22:16.603Z,99.90
2018-10-17T03:23:20.929Z,99.90
2018-10-17T03:24:25.379Z,99.90
2018-10-17T03:25:30.137Z,99.90
2018-10-17T03:26:34.488Z,99.90
2018-10-17T03:27:38.943Z,99.90
2018-10-17T03:28:43.335Z,99.90
2018-10-17T03:29:47.815Z,99.90
2018-10-17T03:30:52.207Z,99.90
2018-10-17T03:31:56.525Z,99.90
2018-10-17T03:33:01.518Z,99.90
2018-10-17T03:34:05.991Z,99.90
2018-10-17T03:35:11.703Z,99.90
2018-10-17T03:36:17.007Z,99.90
2018-10-17T03:37:21.583Z,99.90
2018-10-17T03:38:26.158Z,99.90
2018-10-17T03:39:30.857Z,99.90
2018-10-17T03:40:35.434Z,99.90
2018-10-17T03:41:40.081Z,99.90
2018-10-17T03:42:44.480Z,99.90
2018-10-17T03:43:49.836Z,99.90
2018-10-17T03:44:54.637Z,99.90
2018-10-17T03:46:00.711Z,99.90
2018-10-17T03:47:06.895Z,99.90
2018-10-17T03:48:11.933Z,99.90
2018-10-17T03:49:16.345Z,99.90
2018-10-17T03:50:20.776Z,99.90
2018-10-17T03:51:25.231Z,99.90
2018-10-17T03:54:26.201Z,99.90
2018-10-17T03:55:30.886Z,99.90
2018-10-17T03:56:35.713Z,99.90
2018-10-17T03:57:40.464Z,99.90
2018-10-17T03:58:45.409Z,99.90
2018-10-17T03:59:50.190Z,99.90
2018-10-17T04:00:55.080Z,99.90
2018-10-17T04:01:59.836Z,99.90
2018-10-17T04:03:07.209Z,99.90
2018-10-17T04:04:12.165Z,99.90
2018-10-17T04:05:16.951Z,99.90
2018-10-17T04:06:22.124Z,99.90
2018-10-17T04:07:26.869Z,99.90
2018-10-17T04:08:31.680Z,99.90
2018-10-17T04:09:36.747Z,99.90
2018-10-17T04:10:41.469Z,99.90
2018-10-17T04:11:46.154Z,99.90
2018-10-17T04:12:50.886Z,99.90
2018-10-17T04:13:55.649Z,99.90
2018-10-17T04:15:00.338Z,99.90
2018-10-17T04:16:05.064Z,99.90
2018-10-17T04:17:09.931Z,99.90
2018-10-17T04:18:14.969Z,99.90
2018-10-17T04:19:19.778Z,99.90
2018-10-17T04:20:24.907Z,99.90
2018-10-17T04:21:29.689Z,99.90
2018-10-17T04:22:34.492Z,99.90
2018-10-17T04:23:39.324Z,99.90
2018-10-17T04:24:44.253Z,99.90
2018-10-17T04:25:49.288Z,99.90
2018-10-17T04:26:54.448Z,99.90
2018-10-17T04:27:59.161Z,99.90
2018-10-17T04:30:38.753Z,99.90
2018-10-17T04:31:43.594Z,99.90
2018-10-17T04:32:49.008Z,99.90
2018-10-17T04:33:53.929Z,99.90
2018-10-17T04:34:58.826Z,99.90
2018-10-17T04:36:03.581Z,99.90
2018-10-17T04:37:08.845Z,99.90
2018-10-17T04:38:14.362Z,99.90
2018-10-17T04:39:19.508Z,99.90
2018-10-17T04:40:24.188Z,99.90
2018-10-17T04:41:29.974Z,99.90
2018-10-17T04:42:34.731Z,99.90
2018-10-17T04:43:39.728Z,99.90
2018-10-17T04:44:44.421Z,99.90
2018-10-17T04:45:49.468Z,99.90
2018-10-17T04:46:54.297Z,99.90
2018-10-17T04:47:59.037Z,99.90
2018-10-17T04:49:03.921Z,99.90
2018-10-17T04:50:10.415Z,99.90
2018-10-17T04:51:15.138Z,99.90
2018-10-17T04:52:19.879Z,99.90
2018-10-17T04:53:24.675Z,99.90
2018-10-17T04:54:29.396Z,99.90
2018-10-17T04:55:34.156Z,99.90
2018-10-17T04:56:39.162Z,99.90
2018-10-17T04:57:43.861Z,99.90
2018-10-17T04:58:48.558Z,99.90
2018-10-17T04:59:53.736Z,99.90
2018-10-17T05:00:58.657Z,99.90
2018-10-17T05:02:03.396Z,99.90
2018-10-17T05:03:08.194Z,99.90
2018-10-17T05:04:12.933Z,99.90
2018-10-17T05:05:17.830Z,99.90
2018-10-17T05:06:22.625Z,99.90
2018-10-17T05:07:27.629Z,99.90
2018-10-17T05:08:32.456Z,99.90
2018-10-17T05:09:37.207Z,99.90
2018-10-17T05:10:42.734Z,99.90
2018-10-17T05:11:47.429Z,99.90
2018-10-17T05:12:52.383Z,99.90
2018-10-17T05:13:57.213Z,99.90
2018-10-17T05:15:02.315Z,99.90
2018-10-17T05:16:07.154Z,99.90
2018-10-17T05:19:18.811Z,99.90
2018-10-17T05:20:23.625Z,99.90
2018-10-17T05:21:28.494Z,99.90
2018-10-17T05:22:33.167Z,99.90
2018-10-17T05:23:38.596Z,99.90
2018-10-17T05:24:43.770Z,99.90
2018-10-17T05:25:48.592Z,99.90
2018-10-17T05:26:53.278Z,99.90
2018-10-17T05:27:58.796Z,99.90
2018-10-17T05:29:03.538Z,99.90
2018-10-17T05:30:11.764Z,99.90
2018-10-17T05:31:16.823Z,99.90
2018-10-17T05:32:21.557Z,99.90
2018-10-17T05:33:28.232Z,99.90
2018-10-17T05:34:33.054Z,99.90
2018-10-17T05:35:38.202Z,99.90
2018-10-17T05:36:44.601Z,99.90
2018-10-17T05:37:50.088Z,99.90
2018-10-17T05:38:55.402Z,99.90
2018-10-17T05:40:00.165Z,99.90
2018-10-17T05:41:04.989Z,99.90
2018-10-17T05:42:09.765Z,99.90
2018-10-17T05:43:15.611Z,99.90
2018-10-17T05:44:20.416Z,99.90
2018-10-17T05:45:26.266Z,99.90
2018-10-17T05:46:31.163Z,99.90
2018-10-17T05:47:36.000Z,99.90
2018-10-17T05:48:40.702Z,99.90
2018-10-17T05:49:45.932Z,99.90
2018-10-17T05:50:50.645Z,99.90
2018-10-17T05:51:56.405Z,99.90
2018-10-17T05:53:01.587Z,99.90
2018-10-17T05:54:07.635Z,99.90
2018-10-17T05:55:12.467Z,99.90
2018-10-17T05:56:17.207Z,99.90
2018-10-17T05:57:22.869Z,99.90
2018-10-17T05:58:30.444Z,99.90
2018-10-17T05:59:35.369Z,99.90
2018-10-17T06:00:40.064Z,99.90
2018-10-17T06:01:48.106Z,99.90
2018-10-17T06:02:53.204Z,99.90
2018-10-17T06:05:00.316Z,99.90
2018-10-17T06:06:05.640Z,99.90
2018-10-17T06:07:11.178Z,99.90
2018-10-17T06:08:16.025Z,99.90
2018-10-17T06:09:21.298Z,99.90
2018-10-17T06:10:26.062Z,99.90
2018-10-17T06:11:32.803Z,99.90
2018-10-17T06:12:37.838Z,99.90
2018-10-17T06:13:42.550Z,99.90
2018-10-17T06:14:47.327Z,99.90
2018-10-17T06:15:52.071Z,99.90
2018-10-17T06:16:57.240Z,99.90
2018-10-17T06:18:02.010Z,99.90
2018-10-17T06:19:06.986Z,99.90
2018-10-17T06:20:11.761Z,99.90
2018-10-17T06:21:17.500Z,99.90
2018-10-17T06:22:24.540Z,99.90
2018-10-17T06:23:29.590Z,99.90
2018-10-17T06:24:34.694Z,99.90
2018-10-17T06:25:39.461Z,99.90
2018-10-17T06:26:44.465Z,99.90
2018-10-17T06:27:49.515Z,99.90
2018-10-17T06:28:54.548Z,99.90
2018-10-17T06:30:00.558Z,99.90
2018-10-17T06:31:05.446Z,99.90
2018-10-17T06:32:10.504Z,99.90
2018-10-17T06:33:15.311Z,99.90
2018-10-17T06:34:20.332Z,99.90
2018-10-17T06:35:25.432Z,99.90
2018-10-17T06:36:30.406Z,99.90
2018-10-17T06:37:35.877Z,99.90
2018-10-17T06:38:40.881Z,99.90
2018-10-17T06:39:46.095Z,99.90
2018-10-17T06:40:57.223Z,99.90
2018-10-17T06:42:02.022Z,99.90
2018-10-17T06:43:06.990Z,99.90
2018-10-17T06:44:12.568Z,99.90
2018-10-17T06:45:17.265Z,99.90
2018-10-17T06:46:22.087Z,99.90
2018-10-17T06:47:27.002Z,99.90
2018-10-17T06:48:31.843Z,99.90
2018-10-17T06:49:36.747Z,99.90
2018-10-17T06:50:42.053Z,99.90
2018-10-17T06:51:46.895Z,99.90
2018-10-17T06:52:51.651Z,99.90
2018-10-17T06:53:56.569Z,99.90
2018-10-17T06:55:01.398Z,99.90
2018-10-17T06:56:07.179Z,99.90
2018-10-17T06:57:12.156Z,99.90
2018-10-17T06:58:17.203Z,99.90
2018-10-17T06:59:23.196Z,99.90
2018-10-17T07:00:28.846Z,99.90
2018-10-17T07:01:42.268Z,99.90
2018-10-17T07:02:48.400Z,99.90
2018-10-17T07:03:54.232Z,99.90
2018-10-17T07:05:00.044Z,99.90
2018-10-17T07:06:06.112Z,99.90
2018-10-17T07:07:16.847Z,99.90
2018-10-17T07:08:24.291Z,99.90
2018-10-17T07:09:29.835Z,99.90
2018-10-17T07:10:34.650Z,99.90
2018-10-17T07:11:41.375Z,99.90
2018-10-17T07:12:46.536Z,99.90
2018-10-17T07:13:52.276Z,99.90
2018-10-17T07:14:58.039Z,99.90
2018-10-17T07:16:02.771Z,99.90
2018-10-17T07:17:07.743Z,99.90
2018-10-17T07:18:12.809Z,99.90
2018-10-17T07:19:17.593Z,99.90
2018-10-17T07:20:23.572Z,99.90
2018-10-17T07:21:28.453Z,99.90
2018-10-17T07:22:34.577Z,99.90
2018-10-17T07:23:39.347Z,99.90
2018-10-17T07:24:44.455Z,99.90
2018-10-17T07:25:49.192Z,99.90
2018-10-17T07:26:54.300Z,99.80
2018-10-17T07:27:59.441Z,99.70
2018-10-17T07:29:06.794Z,99.70
2018-10-17T07:30:11.685Z,99.80
2018-10-17T07:31:18.151Z,99.60
2018-10-17T07:32:23.742Z,99.70
2018-10-17T07:33:28.910Z,99.60
2018-10-17T07:34:33.798Z,99.60
2018-10-17T07:35:38.796Z,99.60
2018-10-17T07:36:45.887Z,99.60
2018-10-17T07:37:55.434Z,99.60
2018-10-17T07:39:00.959Z,99.50
2018-10-17T07:40:06.690Z,99.50
2018-10-17T07:41:11.583Z,99.50
2018-10-17T07:42:17.283Z,99.60
2018-10-17T07:43:22.849Z,99.60
2018-10-17T07:44:29.936Z,99.50
2018-10-17T07:45:35.711Z,99.50
2018-10-17T07:46:40.902Z,99.50
2018-10-17T07:47:46.027Z,99.50
2018-10-17T07:48:52.287Z,99.50
2018-10-17T07:49:57.096Z,99.60
2018-10-17T07:51:01.882Z,99.60
2018-10-17T07:52:07.019Z,99.50
2018-10-17T07:53:11.846Z,99.50
2018-10-17T07:54:16.665Z,99.40
2018-10-17T07:55:22.965Z,99.40
2018-10-17T07:56:29.675Z,99.40
2018-10-17T07:57:34.513Z,99.40
2018-10-17T07:58:39.318Z,99.40
2018-10-17T07:59:45.063Z,99.30
2018-10-17T08:00:50.374Z,99.20
2018-10-17T08:01:56.286Z,99.20
2018-10-17T08:03:01.281Z,99.10
2018-10-17T08:04:06.304Z,99.10
2018-10-17T08:05:13.061Z,99.10
2018-10-17T08:06:18.903Z,99.00
2018-10-17T08:07:24.471Z,99.00
2018-10-17T08:08:30.034Z,99.10
2018-10-17T08:09:36.174Z,99.00
2018-10-17T08:10:41.020Z,99.00
2018-10-17T08:11:46.475Z,99.00
2018-10-17T08:12:57.915Z,99.00
2018-10-17T08:14:03.114Z,99.00
2018-10-17T08:15:09.955Z,98.90
2018-10-17T08:16:14.682Z,98.80
2018-10-17T08:17:19.914Z,98.90
2018-10-17T08:18:25.098Z,98.50
2018-10-17T08:19:29.928Z,98.30
2018-10-17T08:20:38.547Z,98.30
2018-10-17T08:21:43.508Z,98.30
2018-10-17T08:22:48.581Z,98.20
2018-10-17T08:23:54.601Z,98.10
2018-10-17T08:24:59.435Z,98.40
2018-10-17T08:26:04.287Z,98.20
2018-10-17T08:27:09.054Z,98.10
2018-10-17T08:28:17.494Z,98.10
2018-10-17T08:29:23.341Z,98.10
2018-10-17T08:30:28.518Z,98.10
2018-10-17T08:31:33.369Z,98.00
2018-10-17T08:32:39.160Z,98.00
2018-10-17T08:33:44.155Z,97.80
2018-10-17T08:34:48.921Z,97.70
2018-10-17T08:35:54.137Z,97.60
2018-10-17T08:36:59.444Z,97.50
2018-10-17T08:38:04.181Z,97.40
2018-10-17T08:39:10.702Z,97.30
2018-10-17T08:40:16.389Z,97.30
2018-10-17T08:41:22.129Z,97.20
2018-10-17T08:42:27.354Z,97.20
2018-10-17T08:43:32.105Z,97.20
2018-10-17T08:44:36.963Z,97.10
2018-10-17T08:45:42.557Z,96.90
2018-10-17T08:46:48.813Z,96.90
2018-10-17T08:47:53.761Z,96.90
2018-10-17T08:48:58.589Z,96.90
2018-10-17T08:50:03.883Z,96.90
2018-10-17T08:51:08.710Z,96.90
2018-10-17T08:52:13.430Z,96.90
2018-10-17T08:53:19.339Z,96.90
2018-10-17T08:54:24.222Z,96.90
2018-10-17T08:55:28.969Z,96.80
2018-10-17T08:56:33.928Z,96.80
2018-10-17T08:57:38.887Z,96.90
2018-10-17T08:58:43.869Z,96.80
2018-10-17T08:59:49.549Z,96.70
2018-10-17T09:00:54.818Z,96.60
2018-10-17T09:01:59.619Z,96.50
2018-10-17T09:03:06.117Z,96.60
2018-10-17T09:04:11.320Z,96.50
2018-10-17T09:05:16.335Z,96.40
2018-10-17T09:06:21.703Z,96.30
2018-10-17T09:07:26.485Z,96.20
2018-10-17T09:08:31.596Z,96.10
2018-10-17T09:09:37.591Z,96.00
2018-10-17T09:10:45.150Z,96.00
2018-10-17T09:11:50.404Z,96.00
2018-10-17T09:12:55.428Z,96.10
2018-10-17T09:14:01.109Z,96.10
2018-10-17T09:15:06.791Z,96.00
2018-10-17T09:16:11.641Z,95.90
2018-10-17T09:17:17.747Z,95.90
2018-10-17T09:18:23.300Z,95.80
2018-10-17T09:19:30.007Z,95.80
2018-10-17T09:20:35.745Z,95.70
2018-10-17T09:21:41.633Z,95.60
2018-10-17T09:22:52.341Z,95.40
2018-10-17T09:23:58.827Z,95.40
2018-10-17T09:25:03.901Z,95.20
2018-10-17T09:26:09.222Z,95.00
2018-10-17T09:27:14.262Z,95.00
2018-10-17T09:28:20.108Z,95.10
2018-10-17T09:29:26.665Z,95.10
2018-10-17T09:30:33.247Z,95.10
2018-10-17T09:31:37.985Z,95.00
2018-10-17T09:32:43.679Z,95.00
2018-10-17T09:33:48.465Z,95.00
2018-10-17T09:34:53.478Z,94.90
2018-10-17T09:35:58.417Z,94.90
2018-10-17T09:37:03.413Z,94.90
2018-10-17T09:38:08.775Z,94.90
2018-10-17T09:39:14.426Z,94.70
2018-10-17T09:40:20.042Z,94.50
2018-10-17T09:41:25.152Z,94.50
2018-10-17T09:42:30.048Z,94.00
2018-10-17T09:43:36.770Z,93.80
2018-10-17T09:44:42.544Z,93.70
2018-10-17T09:45:47.425Z,93.60
2018-10-17T09:46:56.705Z,93.60
2018-10-17T09:48:01.993Z,93.60
2018-10-17T09:49:07.694Z,93.60
2018-10-17T09:50:12.619Z,93.60
2018-10-17T09:51:17.526Z,93.60
2018-10-17T09:52:22.736Z,93.70
2018-10-17T09:53:27.707Z,93.60
2018-10-17T09:54:32.703Z,93.50
2018-10-17T09:55:38.930Z,93.50
2018-10-17T09:56:43.844Z,93.60
2018-10-17T09:57:49.096Z,93.40
2018-10-17T09:58:54.441Z,93.20
2018-10-17T09:59:59.475Z,93.10
2018-10-17T10:01:09.364Z,93.00
2018-10-17T10:02:15.088Z,92.90
2018-10-17T10:03:20.370Z,92.80
2018-10-17T10:04:25.867Z,92.90
2018-10-17T10:05:32.372Z,92.80
2018-10-17T10:06:37.950Z,92.70
2018-10-17T10:07:42.876Z,92.40
2018-10-17T10:08:48.355Z,92.40
2018-10-17T10:09:53.217Z,92.10
2018-10-17T10:10:58.081Z,92.20
2018-10-17T10:12:04.502Z,92.20
2018-10-17T10:13:10.673Z,92.20
2018-10-17T10:14:15.905Z,92.10
2018-10-17T10:15:20.689Z,92.00
2018-10-17T10:16:27.990Z,92.00
2018-10-17T10:17:32.931Z,91.90
2018-10-17T10:18:45.248Z,91.80
2018-10-17T10:19:50.845Z,91.70
2018-10-17T10:20:56.178Z,92.00
2018-10-17T10:22:05.439Z,91.60
2018-10-17T10:23:10.506Z,91.80
2018-10-17T10:24:17.667Z,92.10
2018-10-17T10:25:24.777Z,92.20
2018-10-17T10:26:32.048Z,92.40
2018-10-17T10:27:45.422Z,93.00
2018-10-17T10:29:13.771Z,92.90
2018-10-17T10:30:22.626Z,93.00
2018-10-17T10:32:53.011Z,92.20
2018-10-17T10:33:58.568Z,92.00
2018-10-17T10:35:04.976Z,91.70
2018-10-17T10:36:10.117Z,91.60
2018-10-17T10:37:15.871Z,91.50
2018-10-17T10:38:32.436Z,91.00
2018-10-17T10:39:40.133Z,91.00
2018-10-17T10:40:49.676Z,90.80
2018-10-17T10:41:55.560Z,90.70
2018-10-17T10:43:00.889Z,90.40
2018-10-17T10:44:07.155Z,90.30
2018-10-17T10:45:12.176Z,90.20
2018-10-17T10:46:17.541Z,90.20
2018-10-17T10:47:22.419Z,90.10
2018-10-17T10:48:29.890Z,90.50
2018-10-17T10:49:36.766Z,90.40
2018-10-17T10:50:41.526Z,90.40
2018-10-17T10:51:47.105Z,90.40
2018-10-17T10:52:52.590Z,90.40
2018-10-17T10:54:00.850Z,90.30
2018-10-17T10:55:26.418Z,90.50
2018-10-17T10:56:33.872Z,90.30
2018-10-17T10:57:38.553Z,91.00
2018-10-17T10:58:43.591Z,90.00
2018-10-17T10:59:48.546Z,90.30
2018-10-17T11:00:53.387Z,89.70
2018-10-17T11:01:58.517Z,89.30
2018-10-17T11:03:03.470Z,89.30
2018-10-17T11:04:10.608Z,89.00
2018-10-17T11:05:16.006Z,88.90
2018-10-17T11:06:21.001Z,90.60
2018-10-17T11:07:26.553Z,90.60
2018-10-17T11:08:31.479Z,90.50
2018-10-17T11:09:37.074Z,90.40
2018-10-17T11:10:42.081Z,90.30
2018-10-17T11:11:48.598Z,90.20
2018-10-17T11:12:54.593Z,90.00
2018-10-17T11:14:00.014Z,89.60
2018-10-17T11:15:05.589Z,85.50
2018-10-17T11:16:11.017Z,85.30
2018-10-17T11:17:21.000Z,85.00
2018-10-17T11:18:25.926Z,84.60
2018-10-17T11:19:30.968Z,83.40
2018-10-17T11:20:35.985Z,81.60
2018-10-17T11:21:40.970Z,81.70
2018-10-17T11:22:46.188Z,79.60
2018-10-17T11:23:53.399Z,78.50
2018-10-17T11:25:01.986Z,77.70
2018-10-17T11:26:07.037Z,76.70
2018-10-17T11:27:12.140Z,75.70
2018-10-17T11:28:16.952Z,75.10
2018-10-17T11:29:25.005Z,73.90
2018-10-17T11:30:30.824Z,72.70
2018-10-17T11:31:35.667Z,71.20
2018-10-17T11:32:40.846Z,69.80
2018-10-17T11:33:46.435Z,67.60
2018-10-17T11:34:52.443Z,65.10
2018-10-17T11:35:57.422Z,61.80
2018-10-17T11:37:02.485Z,59.20
2018-10-17T11:38:08.580Z,57.90
2018-10-17T11:39:13.581Z,56.90
2018-10-17T11:40:19.165Z,55.20
2018-10-17T11:41:24.197Z,53.20
2018-10-17T11:42:29.030Z,51.90
2018-10-17T11:43:33.779Z,51.10
2018-10-17T11:44:39.347Z,49.70
2018-10-17T11:45:44.746Z,48.80
2018-10-17T11:46:49.487Z,47.70
2018-10-17T11:47:55.269Z,46.80
2018-10-17T11:49:05.282Z,45.20
2018-10-17T11:52:13.761Z,43.80
2018-10-17T11:53:19.117Z,41.00
2018-10-17T11:54:24.808Z,40.80
2018-10-17T11:55:30.260Z,40.80
2018-10-17T11:56:37.318Z,40.70
2018-10-17T11:57:43.509Z,41.10
2018-10-17T11:58:48.301Z,40.20
2018-10-17T11:59:53.010Z,40.40
2018-10-17T12:00:59.343Z,50.40
2018-10-17T12:02:07.765Z,50.10
2018-10-17T12:03:13.681Z,50.00
2018-10-17T12:04:19.985Z,39.00
2018-10-17T12:05:24.756Z,38.80
2018-10-17T12:06:29.774Z,38.20
2018-10-17T12:07:34.470Z,37.90
2018-10-17T12:08:39.343Z,37.40
2018-10-17T12:09:44.097Z,36.50
2018-10-17T12:10:49.761Z,36.20
2018-10-17T12:11:56.222Z,35.40
2018-10-17T12:13:01.641Z,35.30
2018-10-17T12:14:07.749Z,35.30
2018-10-17T12:15:14.017Z,34.20
2018-10-17T12:16:19.096Z,33.60
2018-10-17T12:17:24.861Z,32.70
2018-10-17T12:18:31.467Z,31.30
2018-10-17T12:19:36.612Z,30.70
2018-10-17T12:20:45.681Z,30.30
2018-10-17T12:21:52.126Z,29.60
2018-10-17T12:22:56.886Z,29.10
2018-10-17T12:24:01.780Z,29.40
2018-10-17T12:25:07.101Z,28.60
2018-10-17T12:26:12.522Z,28.70
2018-10-17T12:27:18.303Z,28.50
2018-10-17T12:28:23.557Z,28.60
2018-10-17T12:29:32.185Z,28.50
2018-10-17T12:30:39.901Z,28.60
2018-10-17T12:31:46.597Z,29.10
2018-10-17T12:32:53.472Z,29.50
2018-10-17T12:33:58.410Z,29.70
2018-10-17T12:35:04.368Z,29.50
2018-10-17T12:36:16.324Z,29.60
2018-10-17T12:37:21.209Z,29.30
2018-10-17T12:38:25.936Z,29.50
2018-10-17T12:39:30.816Z,30.70
2018-10-17T12:40:35.653Z,31.10
2018-10-17T12:42:05.915Z,31.50
2018-10-17T12:43:22.663Z,32.00
2018-10-17T12:44:28.988Z,32.60
2018-10-17T12:45:34.089Z,32.40
2018-10-17T12:46:39.397Z,30.70
2018-10-17T12:47:46.231Z,31.20
2018-10-17T12:48:51.371Z,31.40
2018-10-17T12:49:56.533Z,30.50
2018-10-17T12:51:02.750Z,31.70
2018-10-17T12:52:08.062Z,32.10
2018-10-17T12:53:13.665Z,33.60
2018-10-17T12:54:44.981Z,35.60
2018-10-17T12:56:54.415Z,37.00
2018-10-17T12:58:01.161Z,39.00
2018-10-17T12:59:07.415Z,43.50
2018-10-17T13:00:12.522Z,45.00
2018-10-17T13:01:17.843Z,45.20
2018-10-17T13:02:23.186Z,46.20
2018-10-17T13:03:28.784Z,47.30
2018-10-17T13:04:34.246Z,48.40
2018-10-17T13:05:40.274Z,48.80
2018-10-17T13:06:46.058Z,48.30
2018-10-17T13:07:50.948Z,48.40
2018-10-17T13:08:57.432Z,49.70
2018-10-17T13:10:05.709Z,52.40
2018-10-17T13:11:13.644Z,53.00
2018-10-17T13:12:19.820Z,53.30
2018-10-17T13:13:28.525Z,53.50
2018-10-17T13:14:34.510Z,55.10
2018-10-17T13:15:39.537Z,54.30
2018-10-17T13:17:17.242Z,52.50
2018-10-17T13:18:30.157Z,56.20
2018-10-17T13:19:35.254Z,56.50
2018-10-17T13:20:40.998Z,54.20
2018-10-17T13:21:46.076Z,58.20
2018-10-17T13:22:51.628Z,58.10
2018-10-17T13:23:58.316Z,56.10
2018-10-17T13:25:04.450Z,56.20
2018-10-17T13:26:10.213Z,56.30
2018-10-17T13:27:15.450Z,56.80
2018-10-17T13:28:21.277Z,57.30
2018-10-17T13:29:26.617Z,57.20
2018-10-17T13:30:31.985Z,57.50
2018-10-17T13:31:37.530Z,57.50
2018-10-17T13:32:43.028Z,57.90
2018-10-17T13:33:48.067Z,58.30
2018-10-17T13:34:53.617Z,59.00
2018-10-17T13:35:59.019Z,59.10
2018-10-17T13:37:04.714Z,59.40
2018-10-17T13:38:09.588Z,59.80
2018-10-17T13:39:15.545Z,60.10
2018-10-17T13:40:21.258Z,60.10
2018-10-17T13:41:26.388Z,60.10
2018-10-17T13:42:34.218Z,59.80
2018-10-17T13:43:39.536Z,59.80
2018-10-17T13:44:44.342Z,61.30
2018-10-17T13:45:50.257Z,60.70
2018-10-17T13:46:57.246Z,60.80
2018-10-17T13:48:02.152Z,60.80
2018-10-17T13:49:10.683Z,61.20
2018-10-17T13:50:15.917Z,63.10
2018-10-17T13:51:22.669Z,63.00
2018-10-17T13:52:30.698Z,62.60
2018-10-17T13:53:36.030Z,62.00
2018-10-17T13:54:42.944Z,62.20
2018-10-17T13:55:48.825Z,63.20
2018-10-17T13:56:53.851Z,63.20
2018-10-17T13:57:58.920Z,63.70
2018-10-17T13:59:03.775Z,63.50
2018-10-17T14:00:12.101Z,63.40
2018-10-17T14:01:51.414Z,63.80
2018-10-17T14:03:04.550Z,63.50
2018-10-17T14:04:09.970Z,63.60
2018-10-17T14:05:17.945Z,64.10
2018-10-17T14:06:25.003Z,64.40
2018-10-17T14:07:31.560Z,64.40
2018-10-17T14:08:36.397Z,64.80
2018-10-17T14:09:42.035Z,65.10
2018-10-17T14:10:46.799Z,65.40
2018-10-17T14:11:51.939Z,65.60
2018-10-17T14:12:58.726Z,65.60
2018-10-17T14:14:03.489Z,66.20
2018-10-17T14:15:08.943Z,66.50
2018-10-17T14:16:14.336Z,66.70